sensor_id;sensor_type;location;lat;lon;timestamp;temperature;humidity
69823;SHT31;57119;52.516;13.508;2023-04-22T00:01:14;9.74;74.99
69823;SHT31;57119;52.516;13.508;2023-04-22T00:03:39;9.75;75.21
69823;SHT31;57119;52.516;13.508;2023-04-22T00:06:06;9.57;76.15
69823;SHT31;57119;52.516;13.508;2023-04-22T00:08:32;9.67;75.78
69823;SHT31;57119;52.516;13.508;2023-04-22T00:10:57;9.55;75.49
69823;SHT31;57119;52.516;13.508;2023-04-22T00:13:22;9.50;76.16
69823;SHT31;57119;52.516;13.508;2023-04-22T00:15:48;9.50;75.86
69823;SHT31;57119;52.516;13.508;2023-04-22T00:18:13;9.37;76.74
69823;SHT31;57119;52.516;13.508;2023-04-22T00:20:40;9.36;76.68
69823;SHT31;57119;52.516;13.508;2023-04-22T00:23:08;9.31;77.69
69823;SHT31;57119;52.516;13.508;2023-04-22T00:25:33;9.30;77.56
69823;SHT31;57119;52.516;13.508;2023-04-22T00:27:58;9.20;77.65
69823;SHT31;57119;52.516;13.508;2023-04-22T00:30:24;9.19;77.68
69823;SHT31;57119;52.516;13.508;2023-04-22T00:32:50;9.36;76.68
69823;SHT31;57119;52.516;13.508;2023-04-22T00:35:15;9.19;76.98
69823;SHT31;57119;52.516;13.508;2023-04-22T00:37:41;9.26;77.24
69823;SHT31;57119;52.516;13.508;2023-04-22T00:40:06;9.22;77.43
69823;SHT31;57119;52.516;13.508;2023-04-22T00:42:32;9.09;78.78
69823;SHT31;57119;52.516;13.508;2023-04-22T00:44:59;9.17;77.88
69823;SHT31;57119;52.516;13.508;2023-04-22T00:47:24;9.13;78.11
69823;SHT31;57119;52.516;13.508;2023-04-22T00:49:52;9.24;77.44
69823;SHT31;57119;52.516;13.508;2023-04-22T00:52:18;9.19;77.66
69823;SHT31;57119;52.516;13.508;2023-04-22T00:54:44;9.26;77.36
69823;SHT31;57119;52.516;13.508;2023-04-22T00:57:10;9.36;76.89
69823;SHT31;57119;52.516;13.508;2023-04-22T00:59:36;9.22;77.25
69823;SHT31;57119;52.516;13.508;2023-04-22T01:02:02;9.34;76.70
69823;SHT31;57119;52.516;13.508;2023-04-22T01:04:28;9.31;76.85
69823;SHT31;57119;52.516;13.508;2023-04-22T01:06:54;9.29;77.19
69823;SHT31;57119;52.516;13.508;2023-04-22T01:09:20;9.36;76.90
69823;SHT31;57119;52.516;13.508;2023-04-22T01:11:46;9.33;76.88
69823;SHT31;57119;52.516;13.508;2023-04-22T01:14:11;9.30;76.86
69823;SHT31;57119;52.516;13.508;2023-04-22T01:16:38;9.38;76.32
69823;SHT31;57119;52.516;13.508;2023-04-22T01:19:05;9.20;77.25
69823;SHT31;57119;52.516;13.508;2023-04-22T01:21:32;9.29;76.72
69823;SHT31;57119;52.516;13.508;2023-04-22T01:24:00;9.27;76.54
69823;SHT31;57119;52.516;13.508;2023-04-22T01:26:25;9.22;76.90
69823;SHT31;57119;52.516;13.508;2023-04-22T01:28:51;9.10;77.22
69823;SHT31;57119;52.516;13.508;2023-04-22T01:31:17;9.12;77.60
69823;SHT31;57119;52.516;13.508;2023-04-22T01:33:43;9.10;77.25
69823;SHT31;57119;52.516;13.508;2023-04-22T01:36:10;9.09;77.16
69823;SHT31;57119;52.516;13.508;2023-04-22T01:38:35;9.10;77.37
69823;SHT31;57119;52.516;13.508;2023-04-22T01:41:01;9.08;77.42
69823;SHT31;57119;52.516;13.508;2023-04-22T01:43:27;9.30;76.48
69823;SHT31;57119;52.516;13.508;2023-04-22T01:45:53;9.24;76.71
69823;SHT31;57119;52.516;13.508;2023-04-22T01:48:18;9.23;76.76
69823;SHT31;57119;52.516;13.508;2023-04-22T01:50:43;9.12;77.47
69823;SHT31;57119;52.516;13.508;2023-04-22T01:53:09;9.15;76.85
69823;SHT31;57119;52.516;13.508;2023-04-22T01:55:35;9.30;76.28
69823;SHT31;57119;52.516;13.508;2023-04-22T01:58:02;9.26;76.55
69823;SHT31;57119;52.516;13.508;2023-04-22T02:00:28;9.27;76.45
69823;SHT31;57119;52.516;13.508;2023-04-22T02:02:53;9.15;76.95
69823;SHT31;57119;52.516;13.508;2023-04-22T02:05:19;9.13;76.97
69823;SHT31;57119;52.516;13.508;2023-04-22T02:07:44;9.19;76.78
69823;SHT31;57119;52.516;13.508;2023-04-22T02:10:10;9.17;76.63
69823;SHT31;57119;52.516;13.508;2023-04-22T02:12:36;9.17;76.73
69823;SHT31;57119;52.516;13.508;2023-04-22T02:15:02;9.13;76.90
69823;SHT31;57119;52.516;13.508;2023-04-22T02:17:27;9.13;76.80
69823;SHT31;57119;52.516;13.508;2023-04-22T02:19:53;8.95;77.27
69823;SHT31;57119;52.516;13.508;2023-04-22T02:22:18;8.95;77.40
69823;SHT31;57119;52.516;13.508;2023-04-22T02:24:45;8.93;77.49
69823;SHT31;57119;52.516;13.508;2023-04-22T02:27:10;8.88;77.56
69823;SHT31;57119;52.516;13.508;2023-04-22T02:29:36;8.86;77.77
69823;SHT31;57119;52.516;13.508;2023-04-22T02:32:01;8.88;77.63
69823;SHT31;57119;52.516;13.508;2023-04-22T02:34:26;8.96;77.11
69823;SHT31;57119;52.516;13.508;2023-04-22T02:36:52;8.99;77.17
69823;SHT31;57119;52.516;13.508;2023-04-22T02:39:17;8.89;77.30
69823;SHT31;57119;52.516;13.508;2023-04-22T02:41:42;8.75;77.66
69823;SHT31;57119;52.516;13.508;2023-04-22T02:44:08;8.72;77.53
69823;SHT31;57119;52.516;13.508;2023-04-22T02:46:33;8.71;77.58
69823;SHT31;57119;52.516;13.508;2023-04-22T02:48:58;8.67;77.72
69823;SHT31;57119;52.516;13.508;2023-04-22T02:51:24;8.79;77.14
69823;SHT31;57119;52.516;13.508;2023-04-22T02:53:51;8.79;77.42
69823;SHT31;57119;52.516;13.508;2023-04-22T02:56:16;8.69;77.49
69823;SHT31;57119;52.516;13.508;2023-04-22T02:58:42;8.60;77.78
69823;SHT31;57119;52.516;13.508;2023-04-22T03:01:07;8.58;77.96
69823;SHT31;57119;52.516;13.508;2023-04-22T03:03:33;8.52;79.10
69823;SHT31;57119;52.516;13.508;2023-04-22T03:05:58;8.55;78.20
69823;SHT31;57119;52.516;13.508;2023-04-22T03:08:24;8.47;78.42
69823;SHT31;57119;52.516;13.508;2023-04-22T03:10:50;8.34;79.31
69823;SHT31;57119;52.516;13.508;2023-04-22T03:13:15;8.33;79.15
69823;SHT31;57119;52.516;13.508;2023-04-22T03:15:41;8.34;78.73
69823;SHT31;57119;52.516;13.508;2023-04-22T03:18:07;8.34;79.12
69823;SHT31;57119;52.516;13.508;2023-04-22T03:20:33;8.29;79.21
69823;SHT31;57119;52.516;13.508;2023-04-22T03:22:58;8.14;79.82
69823;SHT31;57119;52.516;13.508;2023-04-22T03:25:24;8.09;80.24
69823;SHT31;57119;52.516;13.508;2023-04-22T03:27:49;8.16;80.15
69823;SHT31;57119;52.516;13.508;2023-04-22T03:30:14;8.07;80.09
69823;SHT31;57119;52.516;13.508;2023-04-22T03:32:40;8.04;80.29
69823;SHT31;57119;52.516;13.508;2023-04-22T03:35:05;7.93;81.07
69823;SHT31;57119;52.516;13.508;2023-04-22T03:37:31;7.96;80.48
69823;SHT31;57119;52.516;13.508;2023-04-22T03:39:57;7.97;80.55
69823;SHT31;57119;52.516;13.508;2023-04-22T03:42:22;8.03;80.51
69823;SHT31;57119;52.516;13.508;2023-04-22T03:44:47;8.03;79.95
69823;SHT31;57119;52.516;13.508;2023-04-22T03:47:13;8.00;80.38
69823;SHT31;57119;52.516;13.508;2023-04-22T03:49:38;7.94;80.60
69823;SHT31;57119;52.516;13.508;2023-04-22T03:52:04;7.87;80.74
69823;SHT31;57119;52.516;13.508;2023-04-22T03:54:29;7.93;80.80
69823;SHT31;57119;52.516;13.508;2023-04-22T03:56:55;7.87;81.02
69823;SHT31;57119;52.516;13.508;2023-04-22T03:59:20;7.87;81.38
69823;SHT31;57119;52.516;13.508;2023-04-22T04:01:46;7.96;80.75
69823;SHT31;57119;52.516;13.508;2023-04-22T04:04:12;7.92;80.86
69823;SHT31;57119;52.516;13.508;2023-04-22T04:06:37;7.83;81.56
69823;SHT31;57119;52.516;13.508;2023-04-22T04:09:03;7.76;81.39
69823;SHT31;57119;52.516;13.508;2023-04-22T04:11:29;7.79;81.34
69823;SHT31;57119;52.516;13.508;2023-04-22T04:13:55;7.73;81.86
69823;SHT31;57119;52.516;13.508;2023-04-22T04:16:20;7.76;81.75
69823;SHT31;57119;52.516;13.508;2023-04-22T04:18:49;7.73;82.25
69823;SHT31;57119;52.516;13.508;2023-04-22T04:21:15;7.76;81.89
69823;SHT31;57119;52.516;13.508;2023-04-22T04:23:40;7.75;82.00
69823;SHT31;57119;52.516;13.508;2023-04-22T04:26:05;7.89;81.49
69823;SHT31;57119;52.516;13.508;2023-04-22T04:28:31;8.02;81.04
69823;SHT31;57119;52.516;13.508;2023-04-22T04:30:59;7.99;81.18
69823;SHT31;57119;52.516;13.508;2023-04-22T04:33:24;8.04;81.21
69823;SHT31;57119;52.516;13.508;2023-04-22T04:35:51;7.99;81.12
69823;SHT31;57119;52.516;13.508;2023-04-22T04:38:18;8.00;81.39
69823;SHT31;57119;52.516;13.508;2023-04-22T04:40:43;8.04;81.12
69823;SHT31;57119;52.516;13.508;2023-04-22T04:43:12;8.10;80.97
69823;SHT31;57119;52.516;13.508;2023-04-22T04:45:38;8.21;80.71
69823;SHT31;57119;52.516;13.508;2023-04-22T04:48:04;8.29;80.29
69823;SHT31;57119;52.516;13.508;2023-04-22T04:50:33;8.31;80.45
69823;SHT31;57119;52.516;13.508;2023-04-22T04:52:58;8.41;80.41
69823;SHT31;57119;52.516;13.508;2023-04-22T04:55:24;8.47;80.08
69823;SHT31;57119;52.516;13.508;2023-04-22T04:57:49;8.55;79.96
69823;SHT31;57119;52.516;13.508;2023-04-22T05:00:15;8.65;79.36
69823;SHT31;57119;52.516;13.508;2023-04-22T05:02:41;8.72;79.36
69823;SHT31;57119;52.516;13.508;2023-04-22T05:05:07;8.73;79.68
69823;SHT31;57119;52.516;13.508;2023-04-22T05:07:32;8.75;79.37
69823;SHT31;57119;52.516;13.508;2023-04-22T05:09:59;8.88;78.80
69823;SHT31;57119;52.516;13.508;2023-04-22T05:12:24;9.00;78.58
69823;SHT31;57119;52.516;13.508;2023-04-22T05:14:49;9.08;78.72
69823;SHT31;57119;52.516;13.508;2023-04-22T05:17:15;9.15;78.14
69823;SHT31;57119;52.516;13.508;2023-04-22T05:19:41;9.27;77.88
69823;SHT31;57119;52.516;13.508;2023-04-22T05:22:06;9.36;78.13
69823;SHT31;57119;52.516;13.508;2023-04-22T05:24:32;9.38;77.42
69823;SHT31;57119;52.516;13.508;2023-04-22T05:27:00;9.47;77.34
69823;SHT31;57119;52.516;13.508;2023-04-22T05:29:26;9.57;77.43
69823;SHT31;57119;52.516;13.508;2023-04-22T05:31:52;9.68;76.89
69823;SHT31;57119;52.516;13.508;2023-04-22T05:34:17;9.73;76.73
69823;SHT31;57119;52.516;13.508;2023-04-22T05:36:42;9.82;76.78
69823;SHT31;57119;52.516;13.508;2023-04-22T05:39:08;9.88;76.65
69823;SHT31;57119;52.516;13.508;2023-04-22T05:41:33;9.96;76.17
69823;SHT31;57119;52.516;13.508;2023-04-22T05:43:59;10.05;75.80
69823;SHT31;57119;52.516;13.508;2023-04-22T05:46:24;10.05;75.62
69823;SHT31;57119;52.516;13.508;2023-04-22T05:48:49;10.15;75.27
69823;SHT31;57119;52.516;13.508;2023-04-22T05:51:15;10.29;75.34
69823;SHT31;57119;52.516;13.508;2023-04-22T05:53:41;10.33;75.04
69823;SHT31;57119;52.516;13.508;2023-04-22T05:56:06;10.35;74.97
69823;SHT31;57119;52.516;13.508;2023-04-22T05:58:32;10.33;75.06
69823;SHT31;57119;52.516;13.508;2023-04-22T06:00:57;10.43;74.59
69823;SHT31;57119;52.516;13.508;2023-04-22T06:03:23;10.60;74.65
69823;SHT31;57119;52.516;13.508;2023-04-22T06:05:48;10.71;74.53
69823;SHT31;57119;52.516;13.508;2023-04-22T06:08:14;10.91;73.73
69823;SHT31;57119;52.516;13.508;2023-04-22T06:10:40;11.01;73.53
69823;SHT31;57119;52.516;13.508;2023-04-22T06:13:05;11.26;73.01
69823;SHT31;57119;52.516;13.508;2023-04-22T06:15:33;11.35;72.61
69823;SHT31;57119;52.516;13.508;2023-04-22T06:17:58;11.50;72.48
69823;SHT31;57119;52.516;13.508;2023-04-22T06:20:24;11.71;72.12
69823;SHT31;57119;52.516;13.508;2023-04-22T06:22:50;11.60;72.08
69823;SHT31;57119;52.516;13.508;2023-04-22T06:25:15;11.69;71.11
69823;SHT31;57119;52.516;13.508;2023-04-22T06:27:40;11.81;71.58
69823;SHT31;57119;52.516;13.508;2023-04-22T06:30:06;12.13;71.39
69823;SHT31;57119;52.516;13.508;2023-04-22T06:32:32;12.25;70.25
69823;SHT31;57119;52.516;13.508;2023-04-22T06:34:57;12.72;69.34
69823;SHT31;57119;52.516;13.508;2023-04-22T06:37:23;13.08;68.76
69823;SHT31;57119;52.516;13.508;2023-04-22T06:39:48;13.30;68.13
69823;SHT31;57119;52.516;13.508;2023-04-22T06:42:14;13.78;67.21
69823;SHT31;57119;52.516;13.508;2023-04-22T06:44:39;13.78;66.41
69823;SHT31;57119;52.516;13.508;2023-04-22T06:47:04;13.73;66.35
69823;SHT31;57119;52.516;13.508;2023-04-22T06:49:30;14.13;66.48
69823;SHT31;57119;52.516;13.508;2023-04-22T06:51:55;14.36;66.03
69823;SHT31;57119;52.516;13.508;2023-04-22T06:54:21;14.92;64.53
69823;SHT31;57119;52.516;13.508;2023-04-22T06:56:46;15.65;63.80
69823;SHT31;57119;52.516;13.508;2023-04-22T06:59:12;15.74;63.08
69823;SHT31;57119;52.516;13.508;2023-04-22T07:01:37;15.95;62.07
69823;SHT31;57119;52.516;13.508;2023-04-22T07:04:03;15.94;61.76
69823;SHT31;57119;52.516;13.508;2023-04-22T07:06:28;16.15;61.24
69823;SHT31;57119;52.516;13.508;2023-04-22T07:08:54;16.80;61.21
69823;SHT31;57119;52.516;13.508;2023-04-22T07:11:19;16.76;59.79
69823;SHT31;57119;52.516;13.508;2023-04-22T07:13:45;17.34;59.99
69823;SHT31;57119;52.516;13.508;2023-04-22T07:16:10;18.17;59.23
69823;SHT31;57119;52.516;13.508;2023-04-22T07:18:36;18.28;57.04
69823;SHT31;57119;52.516;13.508;2023-04-22T07:21:03;18.37;58.36
69823;SHT31;57119;52.516;13.508;2023-04-22T07:23:28;18.64;56.24
69823;SHT31;57119;52.516;13.508;2023-04-22T07:25:53;18.07;55.47
69823;SHT31;57119;52.516;13.508;2023-04-22T07:28:19;18.43;55.33
69823;SHT31;57119;52.516;13.508;2023-04-22T07:30:44;19.54;54.68
69823;SHT31;57119;52.516;13.508;2023-04-22T07:33:10;18.75;54.86
69823;SHT31;57119;52.516;13.508;2023-04-22T07:35:36;19.14;54.78
69823;SHT31;57119;52.516;13.508;2023-04-22T07:38:01;19.06;54.43
69823;SHT31;57119;52.516;13.508;2023-04-22T07:40:27;19.93;53.29
69823;SHT31;57119;52.516;13.508;2023-04-22T07:42:52;19.02;54.17
69823;SHT31;57119;52.516;13.508;2023-04-22T07:45:18;20.32;53.87
69823;SHT31;57119;52.516;13.508;2023-04-22T07:47:44;19.53;53.52
69823;SHT31;57119;52.516;13.508;2023-04-22T07:50:10;19.51;52.83
69823;SHT31;57119;52.516;13.508;2023-04-22T07:52:36;19.02;53.72
69823;SHT31;57119;52.516;13.508;2023-04-22T07:55:04;20.34;52.02
69823;SHT31;57119;52.516;13.508;2023-04-22T07:57:30;20.41;51.00
69823;SHT31;57119;52.516;13.508;2023-04-22T07:59:56;21.05;49.76
69823;SHT31;57119;52.516;13.508;2023-04-22T08:02:22;21.57;49.61
69823;SHT31;57119;52.516;13.508;2023-04-22T08:04:47;22.53;47.78
69823;SHT31;57119;52.516;13.508;2023-04-22T08:07:13;21.98;48.66
69823;SHT31;57119;52.516;13.508;2023-04-22T08:09:39;21.79;48.79
69823;SHT31;57119;52.516;13.508;2023-04-22T08:12:04;21.14;49.91
69823;SHT31;57119;52.516;13.508;2023-04-22T08:14:30;20.96;50.23
69823;SHT31;57119;52.516;13.508;2023-04-22T08:16:55;21.71;49.45
69823;SHT31;57119;52.516;13.508;2023-04-22T08:19:21;21.83;48.96
69823;SHT31;57119;52.516;13.508;2023-04-22T08:21:46;21.70;49.14
69823;SHT31;57119;52.516;13.508;2023-04-22T08:24:12;22.02;48.89
69823;SHT31;57119;52.516;13.508;2023-04-22T08:26:38;21.74;48.48
69823;SHT31;57119;52.516;13.508;2023-04-22T08:29:05;21.73;48.55
69823;SHT31;57119;52.516;13.508;2023-04-22T08:31:30;22.35;48.35
69823;SHT31;57119;52.516;13.508;2023-04-22T08:33:56;21.53;48.20
69823;SHT31;57119;52.516;13.508;2023-04-22T08:36:21;21.89;48.13
69823;SHT31;57119;52.516;13.508;2023-04-22T08:38:52;22.35;47.54
69823;SHT31;57119;52.516;13.508;2023-04-22T08:41:21;22.90;47.00
69823;SHT31;57119;52.516;13.508;2023-04-22T08:43:49;22.95;47.94
69823;SHT31;57119;52.516;13.508;2023-04-22T08:46:16;24.06;46.70
69823;SHT31;57119;52.516;13.508;2023-04-22T08:48:41;23.11;46.89
69823;SHT31;57119;52.516;13.508;2023-04-22T08:51:08;23.16;46.93
69823;SHT31;57119;52.516;13.508;2023-04-22T08:53:34;23.81;46.23
69823;SHT31;57119;52.516;13.508;2023-04-22T08:56:00;24.33;45.46
69823;SHT31;57119;52.516;13.508;2023-04-22T08:58:27;23.72;46.89
69823;SHT31;57119;52.516;13.508;2023-04-22T09:00:53;24.24;45.65
69823;SHT31;57119;52.516;13.508;2023-04-22T09:03:20;23.45;45.44
69823;SHT31;57119;52.516;13.508;2023-04-22T09:05:46;24.02;45.75
69823;SHT31;57119;52.516;13.508;2023-04-22T09:08:12;25.23;44.47
69823;SHT31;57119;52.516;13.508;2023-04-22T09:10:38;24.98;45.37
69823;SHT31;57119;52.516;13.508;2023-04-22T09:13:05;25.56;44.64
69823;SHT31;57119;52.516;13.508;2023-04-22T09:15:31;24.71;44.51
69823;SHT31;57119;52.516;13.508;2023-04-22T09:17:57;25.36;44.17
69823;SHT31;57119;52.516;13.508;2023-04-22T09:20:27;26.70;43.88
69823;SHT31;57119;52.516;13.508;2023-04-22T09:22:53;27.10;41.93
69823;SHT31;57119;52.516;13.508;2023-04-22T09:27:56;26.08;42.16
69823;SHT31;57119;52.516;13.508;2023-04-22T09:32:56;26.46;42.11
69823;SHT31;57119;52.516;13.508;2023-04-22T09:35:25;24.61;43.31
69823;SHT31;57119;52.516;13.508;2023-04-22T09:37:51;26.62;42.12
69823;SHT31;57119;52.516;13.508;2023-04-22T09:40:18;25.60;42.61
69823;SHT31;57119;52.516;13.508;2023-04-22T09:42:48;26.31;42.35
69823;SHT31;57119;52.516;13.508;2023-04-22T09:45:24;27.18;41.19
69823;SHT31;57119;52.516;13.508;2023-04-22T09:47:49;27.45;40.14
69823;SHT31;57119;52.516;13.508;2023-04-22T09:50:15;27.62;39.67
69823;SHT31;57119;52.516;13.508;2023-04-22T09:52:43;26.32;40.95
69823;SHT31;57119;52.516;13.508;2023-04-22T09:55:09;27.58;40.58
69823;SHT31;57119;52.516;13.508;2023-04-22T09:57:38;27.58;40.24
69823;SHT31;57119;52.516;13.508;2023-04-22T10:00:03;29.45;40.13
69823;SHT31;57119;52.516;13.508;2023-04-22T10:02:31;29.54;38.61
69823;SHT31;57119;52.516;13.508;2023-04-22T10:04:56;27.82;38.99
69823;SHT31;57119;52.516;13.508;2023-04-22T10:07:23;28.24;39.19
69823;SHT31;57119;52.516;13.508;2023-04-22T10:09:48;28.61;40.46
69823;SHT31;57119;52.516;13.508;2023-04-22T10:12:14;28.99;39.29
69823;SHT31;57119;52.516;13.508;2023-04-22T10:14:40;29.97;38.15
69823;SHT31;57119;52.516;13.508;2023-04-22T10:17:05;28.95;37.45
69823;SHT31;57119;52.516;13.508;2023-04-22T10:19:31;29.58;38.48
69823;SHT31;57119;52.516;13.508;2023-04-22T10:22:00;28.20;39.30
69823;SHT31;57119;52.516;13.508;2023-04-22T10:24:27;27.63;39.38
69823;SHT31;57119;52.516;13.508;2023-04-22T10:26:57;26.86;40.92
69823;SHT31;57119;52.516;13.508;2023-04-22T10:29:25;28.02;39.95
69823;SHT31;57119;52.516;13.508;2023-04-22T10:32:02;28.39;39.18
69823;SHT31;57119;52.516;13.508;2023-04-22T10:34:29;27.65;39.33
69823;SHT31;57119;52.516;13.508;2023-04-22T10:39:26;27.72;37.96
69823;SHT31;57119;52.516;13.508;2023-04-22T10:41:57;27.61;38.18
69823;SHT31;57119;52.516;13.508;2023-04-22T10:44:53;27.92;37.16
69823;SHT31;57119;52.516;13.508;2023-04-22T10:47:28;27.33;37.96
69823;SHT31;57119;52.516;13.508;2023-04-22T10:50:25;27.47;38.34
69823;SHT31;57119;52.516;13.508;2023-04-22T10:52:58;28.39;37.35
69823;SHT31;57119;52.516;13.508;2023-04-22T10:55:48;26.28;39.03
69823;SHT31;57119;52.516;13.508;2023-04-22T10:58:21;27.26;38.07
69823;SHT31;57119;52.516;13.508;2023-04-22T11:00:46;26.31;37.82
69823;SHT31;57119;52.516;13.508;2023-04-22T11:03:17;28.36;37.73
69823;SHT31;57119;52.516;13.508;2023-04-22T11:05:43;28.76;37.21
69823;SHT31;57119;52.516;13.508;2023-04-22T11:08:17;28.57;37.13
69823;SHT31;57119;52.516;13.508;2023-04-22T11:10:49;28.98;36.95
69823;SHT31;57119;52.516;13.508;2023-04-22T11:13:19;29.74;35.89
69823;SHT31;57119;52.516;13.508;2023-04-22T11:15:49;29.10;36.63
69823;SHT31;57119;52.516;13.508;2023-04-22T11:18:23;28.65;36.68
69823;SHT31;57119;52.516;13.508;2023-04-22T11:20:50;27.00;38.08
69823;SHT31;57119;52.516;13.508;2023-04-22T11:23:26;27.97;37.06
69823;SHT31;57119;52.516;13.508;2023-04-22T11:25:56;29.27;36.07
69823;SHT31;57119;52.516;13.508;2023-04-22T11:28:22;29.10;38.10
69823;SHT31;57119;52.516;13.508;2023-04-22T11:30:48;28.17;37.29
69823;SHT31;57119;52.516;13.508;2023-04-22T11:33:14;27.78;38.31
69823;SHT31;57119;52.516;13.508;2023-04-22T11:35:40;27.30;38.77
69823;SHT31;57119;52.516;13.508;2023-04-22T11:38:07;29.37;37.55
69823;SHT31;57119;52.516;13.508;2023-04-22T11:40:38;27.72;37.53
69823;SHT31;57119;52.516;13.508;2023-04-22T11:43:05;30.52;36.47
69823;SHT31;57119;52.516;13.508;2023-04-22T11:45:32;29.42;35.59
69823;SHT31;57119;52.516;13.508;2023-04-22T11:47:58;28.98;37.12
69823;SHT31;57119;52.516;13.508;2023-04-22T11:50:26;28.04;36.86
69823;SHT31;57119;52.516;13.508;2023-04-22T11:55:21;29.08;36.16
69823;SHT31;57119;52.516;13.508;2023-04-22T11:58:12;27.99;38.09
69823;SHT31;57119;52.516;13.508;2023-04-22T12:00:39;30.06;36.42
69823;SHT31;57119;52.516;13.508;2023-04-22T12:05:52;30.39;34.75
69823;SHT31;57119;52.516;13.508;2023-04-22T12:08:39;28.48;36.75
69823;SHT31;57119;52.516;13.508;2023-04-22T12:11:09;29.20;35.82
69823;SHT31;57119;52.516;13.508;2023-04-22T12:16:03;28.91;35.27
69823;SHT31;57119;52.516;13.508;2023-04-22T12:18:34;29.09;35.18
69823;SHT31;57119;52.516;13.508;2023-04-22T12:23:43;27.99;36.37
69823;SHT31;57119;52.516;13.508;2023-04-22T12:26:09;29.84;33.87
69823;SHT31;57119;52.516;13.508;2023-04-22T12:28:36;30.01;34.11
69823;SHT31;57119;52.516;13.508;2023-04-22T12:31:02;30.19;34.04
69823;SHT31;57119;52.516;13.508;2023-04-22T12:33:27;28.94;34.15
69823;SHT31;57119;52.516;13.508;2023-04-22T12:35:53;30.52;33.51
69823;SHT31;57119;52.516;13.508;2023-04-22T12:38:18;29.56;34.60
69823;SHT31;57119;52.516;13.508;2023-04-22T12:40:44;29.37;35.21
69823;SHT31;57119;52.516;13.508;2023-04-22T12:43:09;29.54;35.13
69823;SHT31;57119;52.516;13.508;2023-04-22T12:45:34;28.33;36.33
69823;SHT31;57119;52.516;13.508;2023-04-22T12:48:00;30.70;33.94
69823;SHT31;57119;52.516;13.508;2023-04-22T12:50:25;30.57;33.95
69823;SHT31;57119;52.516;13.508;2023-04-22T12:52:51;29.80;34.33
69823;SHT31;57119;52.516;13.508;2023-04-22T12:55:16;29.77;34.21
69823;SHT31;57119;52.516;13.508;2023-04-22T12:57:43;27.52;36.07
69823;SHT31;57119;52.516;13.508;2023-04-22T13:00:09;29.64;35.64
69823;SHT31;57119;52.516;13.508;2023-04-22T13:02:41;30.56;34.03
69823;SHT31;57119;52.516;13.508;2023-04-22T13:05:07;28.21;36.14
69823;SHT31;57119;52.516;13.508;2023-04-22T13:07:33;31.55;34.48
69823;SHT31;57119;52.516;13.508;2023-04-22T13:09:58;28.81;34.41
69823;SHT31;57119;52.516;13.508;2023-04-22T13:12:24;27.62;35.99
69823;SHT31;57119;52.516;13.508;2023-04-22T13:14:49;29.77;36.39
69823;SHT31;57119;52.516;13.508;2023-04-22T13:17:14;29.18;34.59
69823;SHT31;57119;52.516;13.508;2023-04-22T13:19:40;30.42;33.85
69823;SHT31;57119;52.516;13.508;2023-04-22T13:22:05;30.08;33.91
69823;SHT31;57119;52.516;13.508;2023-04-22T13:24:31;27.89;36.34
69823;SHT31;57119;52.516;13.508;2023-04-22T13:26:56;31.62;34.71
69823;SHT31;57119;52.516;13.508;2023-04-22T13:29:23;30.35;33.80
69823;SHT31;57119;52.516;13.508;2023-04-22T13:31:49;30.62;33.24
69823;SHT31;57119;52.516;13.508;2023-04-22T13:34:14;29.80;34.91
69823;SHT31;57119;52.516;13.508;2023-04-22T13:36:40;29.54;34.08
69823;SHT31;57119;52.516;13.508;2023-04-22T13:39:05;29.51;34.10
69823;SHT31;57119;52.516;13.508;2023-04-22T13:41:30;29.84;33.04
69823;SHT31;57119;52.516;13.508;2023-04-22T13:43:56;30.39;34.07
69823;SHT31;57119;52.516;13.508;2023-04-22T13:46:22;30.70;32.47
69823;SHT31;57119;52.516;13.508;2023-04-22T13:48:47;29.15;33.85
69823;SHT31;57119;52.516;13.508;2023-04-22T13:51:13;29.19;34.17
69823;SHT31;57119;52.516;13.508;2023-04-22T13:53:39;30.82;33.19
69823;SHT31;57119;52.516;13.508;2023-04-22T13:56:04;30.01;34.18
69823;SHT31;57119;52.516;13.508;2023-04-22T13:58:30;29.40;34.94
69823;SHT31;57119;52.516;13.508;2023-04-22T14:00:56;29.43;34.46
69823;SHT31;57119;52.516;13.508;2023-04-22T14:03:23;31.24;34.08
69823;SHT31;57119;52.516;13.508;2023-04-22T14:05:48;29.91;34.58
69823;SHT31;57119;52.516;13.508;2023-04-22T14:08:14;31.11;34.69
69823;SHT31;57119;52.516;13.508;2023-04-22T14:10:39;33.06;32.83
69823;SHT31;57119;52.516;13.508;2023-04-22T14:13:05;31.38;32.74
69823;SHT31;57119;52.516;13.508;2023-04-22T14:15:30;29.67;34.95
69823;SHT31;57119;52.516;13.508;2023-04-22T14:17:56;28.75;35.33
69823;SHT31;57119;52.516;13.508;2023-04-22T14:20:23;29.03;34.90
69823;SHT31;57119;52.516;13.508;2023-04-22T14:22:51;30.06;33.78
69823;SHT31;57119;52.516;13.508;2023-04-22T14:25:16;29.97;33.85
69823;SHT31;57119;52.516;13.508;2023-04-22T14:27:41;29.94;34.23
69823;SHT31;57119;52.516;13.508;2023-04-22T14:30:07;29.31;34.53
69823;SHT31;57119;52.516;13.508;2023-04-22T14:32:33;29.82;34.76
69823;SHT31;57119;52.516;13.508;2023-04-22T14:34:59;30.84;34.27
69823;SHT31;57119;52.516;13.508;2023-04-22T14:37:24;28.91;34.66
69823;SHT31;57119;52.516;13.508;2023-04-22T14:39:50;28.28;35.77
69823;SHT31;57119;52.516;13.508;2023-04-22T14:42:15;28.10;35.71
69823;SHT31;57119;52.516;13.508;2023-04-22T14:44:42;27.38;35.93
69823;SHT31;57119;52.516;13.508;2023-04-22T14:47:08;29.68;34.73
69823;SHT31;57119;52.516;13.508;2023-04-22T14:49:33;28.47;35.37
69823;SHT31;57119;52.516;13.508;2023-04-22T14:51:59;30.05;34.33
69823;SHT31;57119;52.516;13.508;2023-04-22T14:54:25;29.30;35.00
69823;SHT31;57119;52.516;13.508;2023-04-22T14:56:51;29.78;34.70
69823;SHT31;57119;52.516;13.508;2023-04-22T14:59:19;29.26;35.24
69823;SHT31;57119;52.516;13.508;2023-04-22T15:01:44;30.05;34.73
69823;SHT31;57119;52.516;13.508;2023-04-22T15:04:10;28.87;34.53
69823;SHT31;57119;52.516;13.508;2023-04-22T15:06:37;29.20;34.83
69823;SHT31;57119;52.516;13.508;2023-04-22T15:09:03;27.88;35.90
69823;SHT31;57119;52.516;13.508;2023-04-22T15:11:29;26.79;37.24
69823;SHT31;57119;52.516;13.508;2023-04-22T15:13:54;27.34;36.22
69823;SHT31;57119;52.516;13.508;2023-04-22T15:16:19;27.27;36.22
69823;SHT31;57119;52.516;13.508;2023-04-22T15:18:45;30.42;35.00
69823;SHT31;57119;52.516;13.508;2023-04-22T15:21:10;30.62;33.56
69823;SHT31;57119;52.516;13.508;2023-04-22T15:23:36;28.55;35.60
69823;SHT31;57119;52.516;13.508;2023-04-22T15:26:01;28.64;35.68
69823;SHT31;57119;52.516;13.508;2023-04-22T15:28:26;28.12;35.80
69823;SHT31;57119;52.516;13.508;2023-04-22T15:30:52;26.31;37.65
69823;SHT31;57119;52.516;13.508;2023-04-22T15:33:17;28.47;36.34
69823;SHT31;57119;52.516;13.508;2023-04-22T15:35:43;27.18;37.17